Time;durP1;ratioP1;P1;durP2;ratioP2;P2;SDS_P1;SDS_P2;PMS_P1;PMS_P2;Temp;Humidity;BMP_temperature;BMP_pressure;BME280_temperature;BME280_humidity;BME280_pressure;Samples;Min_cycle;Max_cycle;Signal;HPM_P1;HPM_P2
2022/05/16 00:01:26;;;;;;;;;;;20.20;59.70;;;;;;6094971;23;19929;-82
2022/05/16 00:03:53;;;;;;;;;;;20.20;59.80;;;;;;6094635;23;19988;-78
2022/05/16 00:06:20;;;;;;;;;;;20.10;59.90;;;;;;6096294;23;19980;-80
2022/05/16 00:08:47;;;;;;;;;;;20.10;60.00;;;;;;6094721;23;19921;-79
2022/05/16 00:11:14;;;;;;;;;;;20.10;60.00;;;;;;6095678;23;19972;-82
2022/05/16 00:13:40;;;;;;;;;;;20.00;60.10;;;;;;6094630;23;20310;-80
2022/05/16 00:16:07;;;;;;;;;;;20.10;60.30;;;;;;6095625;23;19922;-82
2022/05/16 00:18:34;;;;;;;;;;;20.00;60.00;;;;;;6095724;23;20357;-80
2022/05/16 00:21:01;;;;;;;;;;;20.00;60.30;;;;;;6094946;23;19922;-79
2022/05/16 00:23:28;;;;;;;;;;;20.00;60.30;;;;;;6096085;23;20362;-80
2022/05/16 00:25:55;;;;;;;;;;;20.00;60.50;;;;;;6094899;23;19929;-80
2022/05/16 00:28:22;;;;;;;;;;;20.00;59.70;;;;;;6095656;23;19921;-80
2022/05/16 00:30:48;;;;;;;;;;;20.00;59.70;;;;;;6094633;23;19922;-79
2022/05/16 00:33:15;;;;;;;;;;;20.10;59.40;;;;;;6095393;23;19925;-79
2022/05/16 00:35:42;;;;;;;;;;;20.20;59.30;;;;;;6096123;23;19921;-78
2022/05/16 00:38:09;;;;;;;;;;;20.20;59.10;;;;;;6090388;23;19926;-80
2022/05/16 00:40:36;;;;;;;;;;;20.20;58.30;;;;;;6090529;23;19926;-80
2022/05/16 00:43:04;;;;;;;;;;;20.30;58.20;;;;;;6089184;23;19922;-79
2022/05/16 00:45:31;;;;;;;;;;;20.40;58.40;;;;;;6090235;23;19926;-81
2022/05/16 00:47:58;;;;;;;;;;;20.40;58.50;;;;;;6090513;23;20024;-82
2022/05/16 00:50:26;;;;;;;;;;;20.30;58.60;;;;;;6090076;23;19922;-81
2022/05/16 00:52:53;;;;;;;;;;;20.30;58.50;;;;;;6089752;23;19949;-80
2022/05/16 00:55:25;;;;;;;;;;;20.30;58.70;;;;;;6089926;23;19945;-79
2022/05/16 00:57:53;;;;;;;;;;;20.30;58.50;;;;;;6089319;23;19929;-79
2022/05/16 01:00:22;;;;;;;;;;;20.30;58.80;;;;;;6090213;23;19977;-82
2022/05/16 01:05:38;;;;;;;;;;;20.30;58.70;;;;;;6067997;23;19929;-80
2022/05/16 01:08:06;;;;;;;;;;;20.20;58.80;;;;;;6090157;23;19946;-79
2022/05/16 01:10:33;;;;;;;;;;;20.30;58.20;;;;;;6090146;23;19928;-80
2022/05/16 01:13:03;;;;;;;;;;;20.30;58.10;;;;;;6067574;23;20379;-80
2022/05/16 01:15:30;;;;;;;;;;;20.40;58.10;;;;;;6090396;23;19922;-80
2022/05/16 01:17:57;;;;;;;;;;;20.40;57.80;;;;;;6089627;23;19925;-80
2022/05/16 01:20:40;;;;;;;;;;;20.30;58.10;;;;;;6090198;23;19960;-78
2022/05/16 01:23:08;;;;;;;;;;;20.30;58.10;;;;;;6065413;23;19922;-82
2022/05/16 01:25:35;;;;;;;;;;;20.30;58.10;;;;;;6090622;23;19930;-81
2022/05/16 01:28:04;;;;;;;;;;;20.30;58.40;;;;;;6088905;23;19925;-80
2022/05/16 01:30:41;;;;;;;;;;;20.30;58.20;;;;;;6089960;23;19932;-81
2022/05/16 01:33:07;;;;;;;;;;;20.40;57.90;;;;;;6067449;23;19976;-79
2022/05/16 01:35:34;;;;;;;;;;;20.30;58.10;;;;;;6091692;23;20402;-82
2022/05/16 01:38:19;;;;;;;;;;;20.30;58.20;;;;;;6089106;23;19925;-81
2022/05/16 01:40:47;;;;;;;;;;;20.30;57.90;;;;;;6089946;23;19978;-82
2022/05/16 01:43:14;;;;;;;;;;;20.30;57.70;;;;;;6089656;23;19921;-82
2022/05/16 01:45:42;;;;;;;;;;;20.30;58.00;;;;;;6089746;23;19933;-81
2022/05/16 01:48:09;;;;;;;;;;;20.20;58.30;;;;;;6089480;23;19928;-80
2022/05/16 01:50:37;;;;;;;;;;;20.20;57.90;;;;;;6089962;23;19922;-81
2022/05/16 01:53:04;;;;;;;;;;;20.30;57.70;;;;;;6088756;23;20254;-82
2022/05/16 01:55:30;;;;;;;;;;;20.30;57.50;;;;;;6090467;23;19945;-83
2022/05/16 01:57:57;;;;;;;;;;;20.30;57.60;;;;;;6089861;23;19926;-83
2022/05/16 02:00:24;;;;;;;;;;;20.20;57.70;;;;;;6090508;23;19946;-79
2022/05/16 02:02:51;;;;;;;;;;;20.30;57.60;;;;;;6089413;23;20406;-82
2022/05/16 02:05:20;;;;;;;;;;;20.20;57.90;;;;;;6089939;23;19925;-79
2022/05/16 02:07:48;;;;;;;;;;;20.10;58.50;;;;;;6089170;23;19926;-83
2022/05/16 02:10:16;;;;;;;;;;;20.10;58.50;;;;;;6089434;23;19922;-79
2022/05/16 02:12:43;;;;;;;;;;;20.10;58.20;;;;;;6089739;23;19926;-81
2022/05/16 02:15:11;;;;;;;;;;;20.00;58.90;;;;;;6089509;23;19921;-81
2022/05/16 02:17:38;;;;;;;;;;;20.00;58.80;;;;;;6089238;23;19937;-80
2022/05/16 02:20:05;;;;;;;;;;;19.90;59.00;;;;;;6088739;23;19973;-82
2022/05/16 02:25:18;;;;;;;;;;;19.80;59.40;;;;;;6066475;23;20343;-80
2022/05/16 02:27:48;;;;;;;;;;;19.70;59.60;;;;;;6089559;23;19972;-79
2022/05/16 02:30:15;;;;;;;;;;;19.70;59.20;;;;;;6088773;23;19922;-83
2022/05/16 02:32:42;;;;;;;;;;;19.80;59.20;;;;;;6089507;23;19926;-81
2022/05/16 02:35:09;;;;;;;;;;;19.70;59.80;;;;;;6088977;23;19950;-81
2022/05/16 02:37:36;;;;;;;;;;;19.70;59.90;;;;;;6091813;23;19922;-83
2022/05/16 02:40:04;;;;;;;;;;;19.60;60.20;;;;;;6093953;23;19976;-81
2022/05/16 02:42:31;;;;;;;;;;;19.50;60.60;;;;;;6094342;23;20339;-81
2022/05/16 02:44:57;;;;;;;;;;;19.50;60.40;;;;;;6093872;23;19925;-79
2022/05/16 02:47:24;;;;;;;;;;;19.40;60.50;;;;;;6094565;23;19928;-78
2022/05/16 02:49:51;;;;;;;;;;;19.40;60.60;;;;;;6094736;23;19932;-83
2022/05/16 02:52:18;;;;;;;;;;;19.40;60.80;;;;;;6094020;23;19935;-79
2022/05/16 02:54:45;;;;;;;;;;;19.30;60.90;;;;;;6094001;23;19921;-83
2022/05/16 02:57:11;;;;;;;;;;;19.30;60.80;;;;;;6093861;23;19926;-78
2022/05/16 02:59:38;;;;;;;;;;;19.30;60.80;;;;;;6094997;23;19925;-81
2022/05/16 03:02:07;;;;;;;;;;;19.40;60.50;;;;;;6093418;23;20258;-78
2022/05/16 03:04:34;;;;;;;;;;;19.40;60.50;;;;;;6093969;23;20317;-78
2022/05/16 03:07:01;;;;;;;;;;;19.30;60.80;;;;;;6093660;23;20442;-79
2022/05/16 03:09:28;;;;;;;;;;;19.30;61.00;;;;;;6094215;23;19929;-79
2022/05/16 03:11:55;;;;;;;;;;;19.20;61.10;;;;;;6094210;23;19921;-79
2022/05/16 03:14:22;;;;;;;;;;;19.20;61.10;;;;;;6046289;23;19921;-83
2022/05/16 03:16:48;;;;;;;;;;;19.20;61.30;;;;;;6071356;23;19925;-78
2022/05/16 03:19:15;;;;;;;;;;;19.20;61.10;;;;;;6041735;23;19929;-83
2022/05/16 03:21:42;;;;;;;;;;;19.10;61.00;;;;;;6065372;23;19933;-78
2022/05/16 03:24:09;;;;;;;;;;;19.20;60.60;;;;;;6064011;23;20332;-80
2022/05/16 03:26:36;;;;;;;;;;;19.20;61.00;;;;;;6064903;23;19973;-80
2022/05/16 03:29:03;;;;;;;;;;;19.20;61.50;;;;;;6064575;23;20342;-79
2022/05/16 03:31:30;;;;;;;;;;;19.10;61.00;;;;;;6065405;23;19973;-80
2022/05/16 03:33:57;;;;;;;;;;;19.10;61.40;;;;;;6064820;23;20339;-78
2022/05/16 03:36:23;;;;;;;;;;;19.00;61.90;;;;;;6064835;23;19926;-78
2022/05/16 03:41:36;;;;;;;;;;;18.90;62.20;;;;;;6094979;23;19925;-79
2022/05/16 03:44:03;;;;;;;;;;;18.80;62.40;;;;;;6093936;23;19936;-78
2022/05/16 03:46:29;;;;;;;;;;;18.70;62.50;;;;;;6093325;23;19992;-78
2022/05/16 03:48:56;;;;;;;;;;;18.70;62.40;;;;;;6093842;23;20246;-78
2022/05/16 03:51:23;;;;;;;;;;;18.70;62.40;;;;;;6093154;23;20413;-78
2022/05/16 03:53:50;;;;;;;;;;;18.70;62.30;;;;;;6093931;23;20235;-81
2022/05/16 03:56:18;;;;;;;;;;;18.70;62.70;;;;;;6093022;23;19921;-78
2022/05/16 03:58:45;;;;;;;;;;;18.60;62.90;;;;;;6094116;23;19925;-78
2022/05/16 04:01:12;;;;;;;;;;;18.60;62.90;;;;;;6094321;23;20338;-80
2022/05/16 04:03:39;;;;;;;;;;;18.50;62.70;;;;;;6094876;23;19929;-79
2022/05/16 04:06:06;;;;;;;;;;;18.50;63.10;;;;;;6093824;23;19921;-82
2022/05/16 04:08:34;;;;;;;;;;;18.60;62.80;;;;;;6093109;23;19929;-78
2022/05/16 04:11:01;;;;;;;;;;;18.60;63.00;;;;;;6093953;23;20306;-81
2022/05/16 04:13:28;;;;;;;;;;;18.50;63.40;;;;;;6092807;23;20342;-82
2022/05/16 04:15:56;;;;;;;;;;;18.50;63.50;;;;;;6095101;23;19922;-82
2022/05/16 04:18:22;;;;;;;;;;;18.40;63.20;;;;;;6093154;23;19953;-80
2022/05/16 04:20:49;;;;;;;;;;;18.40;63.60;;;;;;6093999;23;19925;-82
2022/05/16 04:23:16;;;;;;;;;;;18.40;63.90;;;;;;6092437;23;20298;-79
2022/05/16 04:25:43;;;;;;;;;;;18.40;63.50;;;;;;6093689;23;19921;-83
2022/05/16 04:28:10;;;;;;;;;;;18.40;63.10;;;;;;6094427;23;20262;-80
2022/05/16 04:30:37;;;;;;;;;;;18.50;62.90;;;;;;6093407;23;19921;-83
2022/05/16 04:33:05;;;;;;;;;;;18.50;62.50;;;;;;6094411;23;19921;-83
2022/05/16 04:35:32;;;;;;;;;;;18.60;62.00;;;;;;6093047;23;19925;-82
2022/05/16 04:37:59;;;;;;;;;;;18.60;62.20;;;;;;6093521;23;20246;-78
2022/05/16 04:40:25;;;;;;;;;;;18.60;62.00;;;;;;6093506;23;20331;-82
2022/05/16 04:42:52;;;;;;;;;;;18.60;62.00;;;;;;6094065;23;19929;-79
2022/05/16 04:45:24;;;;;;;;;;;18.70;61.70;;;;;;6093211;23;19921;-79
2022/05/16 04:47:53;;;;;;;;;;;18.70;61.70;;;;;;6095097;23;20331;-79
2022/05/16 04:50:25;;;;;;;;;;;18.70;62.50;;;;;;6094882;23;19928;-82
2022/05/16 04:52:52;;;;;;;;;;;18.60;62.50;;;;;;6095911;23;19925;-80
2022/05/16 04:55:19;;;;;;;;;;;18.50;62.40;;;;;;6094967;23;20180;-79
2022/05/16 04:57:47;;;;;;;;;;;18.50;62.50;;;;;;6096210;23;19944;-78
2022/05/16 05:00:15;;;;;;;;;;;18.60;62.70;;;;;;6095453;23;19921;-78
2022/05/16 05:02:43;;;;;;;;;;;18.60;62.50;;;;;;6071435;23;20405;-82
2022/05/16 05:05:11;;;;;;;;;;;18.70;62.00;;;;;;6095195;23;19928;-80
2022/05/16 05:07:38;;;;;;;;;;;18.70;61.40;;;;;;6094527;23;20318;-80
2022/05/16 05:15:38;;;;;;;;;;;19.00;60.50;;;;;;6094557;23;19922;-80
2022/05/16 05:18:05;;;;;;;;;;;19.00;60.40;;;;;;6095369;23;19921;-79
2022/05/16 05:20:34;;;;;;;;;;;18.90;61.00;;;;;;6094630;23;19981;-80
2022/05/16 05:23:02;;;;;;;;;;;19.00;60.80;;;;;;6095078;23;19925;-79
2022/05/16 05:25:29;;;;;;;;;;;19.00;61.20;;;;;;6094017;23;19996;-80
2022/05/16 05:27:59;;;;;;;;;;;18.90;61.50;;;;;;6094656;23;19921;-79
2022/05/16 05:30:32;;;;;;;;;;;19.00;61.40;;;;;;6093223;23;20314;-83
2022/05/16 05:32:59;;;;;;;;;;;19.00;61.70;;;;;;6094892;23;19972;-81
2022/05/16 05:35:26;;;;;;;;;;;19.00;61.30;;;;;;6093140;23;19925;-82
2022/05/16 05:37:55;;;;;;;;;;;18.90;61.00;;;;;;6091421;23;19992;-79
2022/05/16 05:40:22;;;;;;;;;;;19.00;61.10;;;;;;6094206;23;19925;-83
2022/05/16 05:42:50;;;;;;;;;;;19.10;60.50;;;;;;6094026;23;19925;-83
2022/05/16 05:45:17;;;;;;;;;;;19.10;60.80;;;;;;6094806;23;20254;-82
2022/05/16 05:47:45;;;;;;;;;;;19.20;60.70;;;;;;6094271;23;20254;-82
2022/05/16 05:50:12;;;;;;;;;;;19.20;60.10;;;;;;6095346;23;19925;-83
2022/05/16 05:52:39;;;;;;;;;;;19.30;60.00;;;;;;6095758;23;20004;-82
2022/05/16 05:55:06;;;;;;;;;;;19.40;59.80;;;;;;6096365;23;19921;-78
2022/05/16 05:57:33;;;;;;;;;;;19.50;59.40;;;;;;6093378;23;19929;-79
2022/05/16 06:00:00;;;;;;;;;;;19.50;59.40;;;;;;6094721;23;19921;-82
2022/05/16 06:02:27;;;;;;;;;;;19.50;59.10;;;;;;6094702;23;19922;-84
2022/05/16 06:04:53;;;;;;;;;;;19.60;59.10;;;;;;6094074;23;19925;-80
2022/05/16 06:07:20;;;;;;;;;;;19.60;60.00;;;;;;6094390;23;19943;-79
2022/05/16 06:09:47;;;;;;;;;;;19.60;60.50;;;;;;6093597;23;19996;-84
2022/05/16 06:12:14;;;;;;;;;;;19.70;60.00;;;;;;6094313;23;19921;-83
2022/05/16 06:14:43;;;;;;;;;;;19.80;60.10;;;;;;6093934;23;19988;-82
2022/05/16 06:17:11;;;;;;;;;;;19.90;59.70;;;;;;6094510;23;20236;-79
2022/05/16 06:19:38;;;;;;;;;;;19.90;59.40;;;;;;6093657;23;19977;-79
2022/05/16 06:22:05;;;;;;;;;;;20.00;59.00;;;;;;6094756;23;19988;-79
2022/05/16 06:27:17;;;;;;;;;;;20.00;60.10;;;;;;6095703;23;19972;-79
2022/05/16 06:29:44;;;;;;;;;;;20.10;59.40;;;;;;6093438;23;19977;-82
2022/05/16 06:32:11;;;;;;;;;;;20.20;58.60;;;;;;6094443;23;19922;-83
2022/05/16 06:34:37;;;;;;;;;;;20.20;57.90;;;;;;6094726;23;19921;-80
2022/05/16 06:37:04;;;;;;;;;;;20.30;58.30;;;;;;6093981;23;19921;-82
2022/05/16 06:39:31;;;;;;;;;;;20.40;58.10;;;;;;6094440;23;20233;-83
2022/05/16 06:41:57;;;;;;;;;;;20.40;57.90;;;;;;6095067;23;19957;-80
2022/05/16 06:44:24;;;;;;;;;;;20.50;57.50;;;;;;6094106;23;19929;-83
2022/05/16 06:46:57;;;;;;;;;;;20.50;57.70;;;;;;6093659;23;19925;-82
2022/05/16 06:49:24;;;;;;;;;;;20.70;57.40;;;;;;6094046;23;19921;-82
2022/05/16 06:51:50;;;;;;;;;;;20.70;57.30;;;;;;6093510;23;19925;-83
2022/05/16 06:54:17;;;;;;;;;;;20.90;56.30;;;;;;6094102;23;19932;-83
2022/05/16 06:56:44;;;;;;;;;;;20.90;57.40;;;;;;6093409;23;19922;-80
2022/05/16 06:59:11;;;;;;;;;;;21.10;56.30;;;;;;6094189;23;19976;-83
2022/05/16 07:01:37;;;;;;;;;;;21.10;56.60;;;;;;6093320;23;20046;-79
2022/05/16 07:04:05;;;;;;;;;;;21.20;55.00;;;;;;6094047;23;19928;-82
2022/05/16 07:06:31;;;;;;;;;;;21.40;54.80;;;;;;6093723;23;19925;-82
2022/05/16 07:08:58;;;;;;;;;;;21.50;55.50;;;;;;6093435;23;19921;-83
2022/05/16 07:11:25;;;;;;;;;;;21.50;54.20;;;;;;6092723;23;20037;-83
2022/05/16 07:13:52;;;;;;;;;;;21.60;53.70;;;;;;6093605;23;19921;-79
2022/05/16 07:16:19;;;;;;;;;;;21.70;53.90;;;;;;6092790;23;19922;-83
2022/05/16 07:18:46;;;;;;;;;;;21.80;53.30;;;;;;6093671;23;19921;-83
2022/05/16 07:21:13;;;;;;;;;;;21.90;54.30;;;;;;6094021;23;19953;-79
2022/05/16 07:23:39;;;;;;;;;;;22.00;52.80;;;;;;6093128;23;19976;-84
2022/05/16 07:28:51;;;;;;;;;;;22.30;52.60;;;;;;6094137;23;19925;-82
2022/05/16 07:31:18;;;;;;;;;;;22.50;53.70;;;;;;6093816;23;20258;-79
2022/05/16 07:33:45;;;;;;;;;;;22.70;52.70;;;;;;6092676;23;19921;-79
2022/05/16 07:36:12;;;;;;;;;;;22.80;51.80;;;;;;6095072;23;19977;-79
2022/05/16 07:38:39;;;;;;;;;;;22.90;51.00;;;;;;6092339;23;19925;-82
2022/05/16 07:41:05;;;;;;;;;;;23.00;51.50;;;;;;6118288;23;19921;-83
2022/05/16 07:43:33;;;;;;;;;;;23.10;51.20;;;;;;6093195;23;20334;-80
2022/05/16 07:46:00;;;;;;;;;;;23.30;50.00;;;;;;6094726;23;19921;-79
2022/05/16 07:48:27;;;;;;;;;;;23.40;48.50;;;;;;6093998;23;19921;-83
2022/05/16 07:50:53;;;;;;;;;;;23.50;49.00;;;;;;6093874;23;20330;-79
2022/05/16 07:53:20;;;;;;;;;;;23.60;48.80;;;;;;6093697;23;19972;-80
2022/05/16 07:55:51;;;;;;;;;;;23.80;48.80;;;;;;6092607;23;19977;-82
2022/05/16 07:58:20;;;;;;;;;;;23.90;47.50;;;;;;6093654;23;19945;-82
2022/05/16 08:00:53;;;;;;;;;;;24.00;48.90;;;;;;6093800;23;20008;-80
2022/05/16 08:03:22;;;;;;;;;;;24.10;47.90;;;;;;6093334;23;19929;-82
2022/05/16 08:05:48;;;;;;;;;;;24.10;47.70;;;;;;6093188;23;19922;-82
2022/05/16 08:11:01;;;;;;;;;;;24.30;47.70;;;;;;6094554;23;20406;-84
2022/05/16 08:13:28;;;;;;;;;;;24.50;47.90;;;;;;6094710;23;19929;-80
2022/05/16 08:15:56;;;;;;;;;;;24.60;48.50;;;;;;6092452;23;19921;-79
2022/05/16 08:18:23;;;;;;;;;;;24.80;47.50;;;;;;6093758;23;19979;-81
2022/05/16 08:20:51;;;;;;;;;;;25.00;46.30;;;;;;6093452;23;20138;-79
2022/05/16 08:23:29;;;;;;;;;;;25.20;46.70;;;;;;6095287;23;19925;-85
2022/05/16 08:25:58;;;;;;;;;;;25.20;46.70;;;;;;6094171;23;19921;-79
2022/05/16 08:28:25;;;;;;;;;;;25.40;47.30;;;;;;6095653;23;20343;-80
2022/05/16 08:30:52;;;;;;;;;;;25.50;46.20;;;;;;6094294;23;19922;-82
2022/05/16 08:33:19;;;;;;;;;;;25.70;46.80;;;;;;6095630;23;19972;-82
2022/05/16 08:39:52;;;;;;;;;;;25.80;46.70;;;;;;6094460;23;19921;-84
2022/05/16 08:41:22;;;;;;;;;;;25.80;48.80;;;;;;6096258;23;19980;-80
2022/05/16 08:43:50;;;;;;;;;;;25.60;49.20;;;;;;6095830;23;19921;-80
2022/05/16 08:46:32;;;;;;;;;;;25.50;52.20;;;;;;6095529;23;19929;-80
2022/05/16 08:49:06;;;;;;;;;;;25.70;52.20;;;;;;6094893;23;19949;-79
2022/05/16 08:51:33;;;;;;;;;;;25.80;50.80;;;;;;6096254;23;19925;-83
2022/05/16 08:54:03;;;;;;;;;;;25.90;49.60;;;;;;6094787;23;20262;-80
2022/05/16 08:56:32;;;;;;;;;;;25.80;50.30;;;;;;6095649;23;19925;-84
2022/05/16 08:59:04;;;;;;;;;;;25.90;53.80;;;;;;6094552;23;19922;-85
2022/05/16 09:01:34;;;;;;;;;;;26.10;53.80;;;;;;6094724;23;19925;-85
2022/05/16 09:04:12;;;;;;;;;;;26.30;53.70;;;;;;6094250;23;19977;-80
2022/05/16 09:06:54;;;;;;;;;;;26.30;52.80;;;;;;6095577;23;19925;-80
2022/05/16 09:09:22;;;;;;;;;;;26.10;52.00;;;;;;6096117;23;20306;-79
2022/05/16 09:12:01;;;;;;;;;;;26.20;52.10;;;;;;6094763;23;19921;-83
2022/05/16 09:14:47;;;;;;;;;;;26.20;52.90;;;;;;6095675;23;19925;-85
2022/05/16 09:17:31;;;;;;;;;;;26.20;52.10;;;;;;6094080;23;19956;-80
2022/05/16 09:20:12;;;;;;;;;;;26.30;52.40;;;;;;6095158;23;19925;-80
2022/05/16 09:22:54;;;;;;;;;;;25.80;51.20;;;;;;6070820;23;19922;-85
2022/05/16 09:25:26;;;;;;;;;;;25.70;54.60;;;;;;6094054;23;19921;-83
2022/05/16 09:30:41;;;;;;;;;;;25.90;54.20;;;;;;6094785;23;19933;-83
2022/05/16 09:33:11;;;;;;;;;;;26.10;53.80;;;;;;6094732;23;19976;-80
2022/05/16 09:35:47;;;;;;;;;;;25.80;52.90;;;;;;6094148;23;19929;-81
2022/05/16 09:38:14;;;;;;;;;;;25.90;54.10;;;;;;6094477;23;19925;-80
2022/05/16 09:40:53;;;;;;;;;;;26.10;53.50;;;;;;6094195;23;19929;-80
2022/05/16 09:43:21;;;;;;;;;;;26.40;52.10;;;;;;6093977;23;19921;-85
2022/05/16 09:46:14;;;;;;;;;;;26.60;52.40;;;;;;6095954;23;19976;-84
2022/05/16 09:48:41;;;;;;;;;;;26.60;50.90;;;;;;6092574;23;19944;-82
2022/05/16 09:51:09;;;;;;;;;;;26.20;51.90;;;;;;6094614;23;20298;-80
2022/05/16 09:53:37;;;;;;;;;;;26.30;52.20;;;;;;6094164;23;19945;-79
2022/05/16 09:56:09;;;;;;;;;;;26.40;53.90;;;;;;6094837;23;19925;-82
2022/05/16 09:58:45;;;;;;;;;;;26.60;52.40;;;;;;6095048;23;19925;-80
2022/05/16 10:01:13;;;;;;;;;;;26.60;51.80;;;;;;6095426;23;19973;-83
2022/05/16 10:03:42;;;;;;;;;;;26.50;52.60;;;;;;6094910;23;19964;-86
2022/05/16 10:06:25;;;;;;;;;;;26.70;50.60;;;;;;6095830;23;20365;-80
2022/05/16 10:08:52;;;;;;;;;;;26.70;52.50;;;;;;6070326;23;19925;-84
2022/05/16 10:11:24;;;;;;;;;;;26.70;51.00;;;;;;6094781;23;19925;-83
2022/05/16 10:13:51;;;;;;;;;;;26.90;51.20;;;;;;6093501;23;20171;-81
2022/05/16 10:16:19;;;;;;;;;;;27.00;52.30;;;;;;6093997;23;19929;-85
2022/05/16 10:18:49;;;;;;;;;;;27.20;52.30;;;;;;6093509;23;19928;-86
2022/05/16 10:21:20;;;;;;;;;;;27.30;52.00;;;;;;6094788;23;20019;-79
2022/05/16 10:23:46;;;;;;;;;;;27.30;51.20;;;;;;6093114;23;19945;-81
2022/05/16 10:26:18;;;;;;;;;;;27.40;51.70;;;;;;6094957;23;19949;-81
2022/05/16 10:28:51;;;;;;;;;;;27.50;52.30;;;;;;6093637;23;19954;-83
2022/05/16 10:34:14;;;;;;;;;;;27.90;50.20;;;;;;6094800;23;19929;-84
2022/05/16 10:36:42;;;;;;;;;;;28.00;50.20;;;;;;6095695;23;19956;-80
2022/05/16 10:39:15;;;;;;;;;;;27.80;48.30;;;;;;6069552;23;19976;-85
2022/05/16 10:41:51;;;;;;;;;;;27.80;50.00;;;;;;6094608;23;19921;-86
2022/05/16 10:44:26;;;;;;;;;;;27.50;51.80;;;;;;6069107;23;20395;-85
2022/05/16 10:46:59;;;;;;;;;;;27.40;51.00;;;;;;6092945;23;19925;-84
2022/05/16 10:49:28;;;;;;;;;;;27.50;51.30;;;;;;6094092;23;19921;-80
2022/05/16 10:51:58;;;;;;;;;;;27.60;50.40;;;;;;6093090;23;19929;-85
2022/05/16 10:54:25;;;;;;;;;;;27.80;52.50;;;;;;6094109;23;20345;-86
2022/05/16 10:56:52;;;;;;;;;;;28.10;52.50;;;;;;6094069;23;19976;-80
2022/05/16 10:59:25;;;;;;;;;;;27.40;52.60;;;;;;6093533;23;19925;-81
2022/05/16 11:02:03;;;;;;;;;;;27.40;52.30;;;;;;6094234;23;20258;-82
2022/05/16 11:04:49;;;;;;;;;;;27.70;50.70;;;;;;6069830;23;20334;-84
2022/05/16 11:07:26;;;;;;;;;;;27.90;50.00;;;;;;6093198;23;20334;-85
2022/05/16 11:09:52;;;;;;;;;;;28.00;49.80;;;;;;6093879;23;19932;-84
2022/05/16 11:12:25;;;;;;;;;;;28.10;49.40;;;;;;6092764;23;19945;-80
2022/05/16 11:15:27;;;;;;;;;;;28.10;49.10;;;;;;6093716;23;19925;-83
2022/05/16 11:17:58;;;;;;;;;;;27.70;48.80;;;;;;6063309;23;19990;-85
2022/05/16 11:20:36;;;;;;;;;;;27.50;50.00;;;;;;6088615;23;19988;-83
2022/05/16 11:23:25;;;;;;;;;;;27.30;49.40;;;;;;6069570;23;19949;-80
2022/05/16 11:25:54;;;;;;;;;;;27.40;50.60;;;;;;6093094;23;19921;-84
2022/05/16 11:28:24;;;;;;;;;;;27.50;51.80;;;;;;6093857;23;19925;-85
2022/05/16 11:30:59;;;;;;;;;;;27.80;52.20;;;;;;6092750;23;19921;-81
2022/05/16 11:33:38;;;;;;;;;;;28.30;51.10;;;;;;6093703;23;20413;-85
2022/05/16 11:36:25;;;;;;;;;;;28.20;48.60;;;;;;6093660;23;19922;-81
2022/05/16 11:39:05;;;;;;;;;;;28.10;50.30;;;;;;6091948;23;19929;-84
2022/05/16 11:41:50;;;;;;;;;;;28.50;50.70;;;;;;6093843;23;19925;-84
2022/05/16 11:44:27;;;;;;;;;;;28.80;48.50;;;;;;6116691;23;20302;-81
2022/05/16 11:47:09;;;;;;;;;;;28.40;48.70;;;;;;6092566;23;20142;-83
2022/05/16 11:49:56;;;;;;;;;;;28.80;48.70;;;;;;6092811;23;19945;-85
2022/05/16 11:53:02;;;;;;;;;;;28.70;48.30;;;;;;6093341;23;20004;-82
2022/05/16 12:01:03;;;;;;;;;;;29.00;48.00;;;;;;6096315;23;20339;-84
2022/05/16 12:03:41;;;;;;;;;;;29.60;47.30;;;;;;6090182;23;19929;-83
2022/05/16 12:06:13;;;;;;;;;;;30.00;44.30;;;;;;6091692;23;19925;-81
2022/05/16 12:08:46;;;;;;;;;;;29.80;45.10;;;;;;6091787;23;20344;-81
2022/05/16 12:11:20;;;;;;;;;;;30.20;45.80;;;;;;6090055;23;19977;-81
2022/05/16 12:14:01;;;;;;;;;;;29.10;46.20;;;;;;6095005;23;19921;-80
2022/05/16 12:16:32;;;;;;;;;;;29.30;47.00;;;;;;6093687;23;19929;-85
2022/05/16 12:19:16;;;;;;;;;;;29.40;45.60;;;;;;6094368;23;19925;-83
2022/05/16 12:21:53;;;;;;;;;;;29.20;46.30;;;;;;6070471;23;19921;-81
2022/05/16 12:24:27;;;;;;;;;;;29.30;45.60;;;;;;6095634;23;20009;-81
2022/05/16 12:26:57;;;;;;;;;;;28.40;47.20;;;;;;6098324;23;19925;-80
2022/05/16 12:29:29;;;;;;;;;;;28.40;49.90;;;;;;6095369;23;19925;-81
2022/05/16 12:31:56;;;;;;;;;;;28.50;48.70;;;;;;6096282;23;20311;-83
2022/05/16 12:34:29;;;;;;;;;;;28.80;48.00;;;;;;6094573;23;19936;-84
2022/05/16 12:36:56;;;;;;;;;;;28.80;49.30;;;;;;6094839;23;19952;-80
2022/05/16 12:39:38;;;;;;;;;;;28.60;50.40;;;;;;6093581;23;20339;-81
2022/05/16 12:42:07;;;;;;;;;;;28.50;51.20;;;;;;6095644;23;19977;-83
2022/05/16 12:44:43;;;;;;;;;;;28.20;53.60;;;;;;6097180;23;20239;-84
2022/05/16 12:47:18;;;;;;;;;;;27.80;55.20;;;;;;6110036;23;19921;-83
2022/05/16 12:50:04;;;;;;;;;;;27.40;59.30;;;;;;6105629;23;19921;-79
2022/05/16 12:52:33;;;;;;;;;;;27.00;59.60;;;;;;6107904;23;19968;-82
2022/05/16 12:55:03;;;;;;;;;;;26.60;62.90;;;;;;6108446;23;19921;-83
2022/05/16 12:57:42;;;;;;;;;;;26.10;64.40;;;;;;6098632;23;20306;-85
2022/05/16 13:00:18;;;;;;;;;;;25.60;66.40;;;;;;6098308;23;19921;-81
2022/05/16 13:03:01;;;;;;;;;;;24.90;66.70;;;;;;6096568;23;20250;-82
2022/05/16 13:05:46;;;;;;;;;;;24.60;65.80;;;;;;6094613;23;19929;-81
2022/05/16 13:08:38;;;;;;;;;;;24.30;67.20;;;;;;6095787;23;19952;-85
2022/05/16 13:11:25;;;;;;;;;;;24.00;69.10;;;;;;6097184;23;19921;-86
2022/05/16 13:14:03;;;;;;;;;;;23.70;72.70;;;;;;6070280;23;20371;-84
2022/05/16 13:16:34;;;;;;;;;;;23.30;70.70;;;;;;6095165;23;19925;-80
2022/05/16 13:19:05;;;;;;;;;;;23.10;74.30;;;;;;6094553;23;19995;-86
2022/05/16 13:21:45;;;;;;;;;;;23.20;73.50;;;;;;6094232;23;20139;-80
2022/05/16 13:24:14;;;;;;;;;;;23.10;74.70;;;;;;6094469;23;19929;-85
2022/05/16 13:29:38;;;;;;;;;;;23.30;70.50;;;;;;6094984;23;19937;-88
2022/05/16 13:32:09;;;;;;;;;;;23.30;74.80;;;;;;6094771;23;20305;-81
2022/05/16 13:34:41;;;;;;;;;;;23.50;76.00;;;;;;6093662;23;20343;-89
2022/05/16 13:37:10;;;;;;;;;;;23.80;76.70;;;;;;6096236;23;19992;-88
2022/05/16 13:39:39;;;;;;;;;;;23.90;75.70;;;;;;6095401;23;20399;-81
2022/05/16 13:42:05;;;;;;;;;;;24.30;76.10;;;;;;6094276;23;19929;-85
2022/05/16 13:44:33;;;;;;;;;;;24.70;71.70;;;;;;6094731;23;20489;-90
2022/05/16 13:47:02;;;;;;;;;;;25.00;70.10;;;;;;6094424;23;19929;-86
2022/05/16 13:49:29;;;;;;;;;;;25.40;69.60;;;;;;6095917;23;19945;-81
2022/05/16 13:51:56;;;;;;;;;;;25.40;67.70;;;;;;6070505;23;19925;-81
2022/05/16 13:54:26;;;;;;;;;;;25.60;69.80;;;;;;6093989;23;19972;-80
2022/05/16 13:56:58;;;;;;;;;;;26.00;69.50;;;;;;6096789;23;19965;-86
2022/05/16 13:59:30;;;;;;;;;;;26.40;71.90;;;;;;6095690;23;19971;-88
2022/05/16 14:02:04;;;;;;;;;;;26.50;68.20;;;;;;6096026;23;19996;-86
2022/05/16 14:04:35;;;;;;;;;;;26.40;69.80;;;;;;6097776;23;20401;-79
2022/05/16 14:07:04;;;;;;;;;;;26.80;64.60;;;;;;6070492;23;19925;-80
2022/05/16 14:09:35;;;;;;;;;;;27.00;63.40;;;;;;6094255;23;19931;-88
2022/05/16 14:12:03;;;;;;;;;;;27.20;65.50;;;;;;6090756;23;19928;-89
2022/05/16 14:14:29;;;;;;;;;;;27.20;66.20;;;;;;6091682;23;19921;-80
2022/05/16 14:16:57;;;;;;;;;;;27.10;65.90;;;;;;6092422;23;19932;-81
2022/05/16 14:19:44;;;;;;;;;;;27.00;63.00;;;;;;6096179;23;19921;-81
2022/05/16 14:22:10;;;;;;;;;;;26.90;62.80;;;;;;6068345;23;20338;-81
2022/05/16 14:24:49;;;;;;;;;;;26.80;61.10;;;;;;6093441;23;19952;-86
2022/05/16 14:27:20;;;;;;;;;;;26.70;63.30;;;;;;6070253;23;19976;-90
2022/05/16 14:30:00;;;;;;;;;;;26.40;64.30;;;;;;6096543;23;19921;-80
2022/05/16 14:32:30;;;;;;;;;;;26.30;66.00;;;;;;6069471;23;19925;-81
2022/05/16 14:35:08;;;;;;;;;;;26.30;65.40;;;;;;6094454;23;19921;-81
2022/05/16 14:37:36;;;;;;;;;;;26.30;67.30;;;;;;6093798;23;19949;-91
2022/05/16 14:40:09;;;;;;;;;;;26.30;64.80;;;;;;6094811;23;19929;-81
2022/05/16 14:42:40;;;;;;;;;;;26.20;63.20;;;;;;6092484;23;19925;-81
2022/05/16 14:45:07;;;;;;;;;;;26.30;65.30;;;;;;6090281;23;20354;-86
2022/05/16 14:47:40;;;;;;;;;;;26.40;64.10;;;;;;6089588;23;19987;-87
2022/05/16 14:50:12;;;;;;;;;;;26.40;64.70;;;;;;6091707;23;19972;-87
2022/05/16 14:52:40;;;;;;;;;;;26.70;62.90;;;;;;6069822;23;19925;-80
2022/05/16 14:55:09;;;;;;;;;;;26.60;63.30;;;;;;6094644;23;20346;-90
2022/05/16 14:57:37;;;;;;;;;;;26.50;63.80;;;;;;6093628;23;19984;-89
2022/05/16 15:00:05;;;;;;;;;;;26.50;64.40;;;;;;6093778;23;19925;-88
2022/05/16 15:05:17;;;;;;;;;;;26.40;64.80;;;;;;6094827;23;20402;-87
2022/05/16 15:07:44;;;;;;;;;;;26.40;64.80;;;;;;6094006;23;19929;-81
2022/05/16 15:10:12;;;;;;;;;;;26.60;64.70;;;;;;6094211;23;19921;-89
2022/05/16 15:12:42;;;;;;;;;;;27.00;65.00;;;;;;6093363;23;19925;-88
2022/05/16 15:15:09;;;;;;;;;;;27.50;64.80;;;;;;6094198;23;20269;-80